createdAt,value
2019-05-21T00:00:00.257Z,16.90
2019-05-21T00:05:04.705Z,16.90
2019-05-21T00:10:09.215Z,17.10
2019-05-21T00:15:13.545Z,17.20
2019-05-21T00:20:18.140Z,17.10
2019-05-21T00:25:22.479Z,17.00
2019-05-21T00:31:02.855Z,16.80
2019-05-21T00:36:45.159Z,16.80
2019-05-21T00:42:00.222Z,16.70
2019-05-21T00:47:06.303Z,16.70
2019-05-21T00:52:10.615Z,16.80
2019-05-21T00:57:14.922Z,16.80
2019-05-21T01:02:19.240Z,16.70
2019-05-21T01:07:23.564Z,16.70
2019-05-21T01:12:27.864Z,16.70
2019-05-21T01:17:32.135Z,16.80
2019-05-21T01:22:38.491Z,16.80
2019-05-21T01:27:42.801Z,16.70
2019-05-21T01:32:47.162Z,16.60
2019-05-21T01:37:51.464Z,16.60
2019-05-21T01:42:55.857Z,16.60
2019-05-21T01:48:00.242Z,16.60
2019-05-21T01:53:04.555Z,16.60
2019-05-21T01:58:08.863Z,16.60
2019-05-21T02:03:13.500Z,16.60
2019-05-21T02:08:17.806Z,16.60
2019-05-21T02:13:23.515Z,16.70
2019-05-21T02:18:27.984Z,16.70
2019-05-21T02:23:32.415Z,16.70
2019-05-21T02:28:36.775Z,16.60
2019-05-21T02:33:41.204Z,16.60
2019-05-21T02:38:45.610Z,16.50
2019-05-21T02:43:49.907Z,16.50
2019-05-21T02:48:54.410Z,16.60
2019-05-21T02:53:58.728Z,16.60
2019-05-21T02:59:03.063Z,16.70
2019-05-21T03:04:07.567Z,16.60
2019-05-21T03:09:11.874Z,16.50
2019-05-21T03:14:16.176Z,16.40
2019-05-21T03:19:20.640Z,16.40
2019-05-21T03:24:25.001Z,16.50
2019-05-21T03:29:29.287Z,16.50
2019-05-21T03:34:33.589Z,16.60
2019-05-21T03:39:37.885Z,16.60
2019-05-21T03:44:58.399Z,16.60
2019-05-21T03:49:48.482Z,16.50
2019-05-21T03:54:54.792Z,16.40
2019-05-21T03:59:58.948Z,16.30
2019-05-21T04:05:03.296Z,16.30
2019-05-21T04:10:15.596Z,16.30
2019-05-21T04:15:21.520Z,16.20
2019-05-21T04:20:25.905Z,16.10
2019-05-21T04:25:30.267Z,16.20
2019-05-21T04:30:34.726Z,16.20
2019-05-21T04:35:39.050Z,16.20
2019-05-21T04:40:43.431Z,16.10
2019-05-21T04:45:47.746Z,16.10
2019-05-21T04:50:52.032Z,16.10
2019-05-21T04:55:56.299Z,16.00
2019-05-21T05:01:00.621Z,16.00
2019-05-21T05:06:04.972Z,15.90
2019-05-21T05:11:09.331Z,15.90
2019-05-21T05:16:13.626Z,15.80
2019-05-21T05:21:17.919Z,15.80
2019-05-21T05:26:22.262Z,15.80
2019-05-21T05:31:26.613Z,15.90
2019-05-21T05:36:30.926Z,15.90
2019-05-21T05:41:35.231Z,15.90
2019-05-21T05:46:39.520Z,15.80
2019-05-21T05:51:43.874Z,15.70
2019-05-21T05:56:48.190Z,15.80
2019-05-21T06:01:52.476Z,15.70
2019-05-21T06:06:56.772Z,15.70
2019-05-21T06:12:01.098Z,15.80
2019-05-21T06:17:05.571Z,15.80
2019-05-21T06:22:09.859Z,15.90
2019-05-21T06:27:14.205Z,15.90
2019-05-21T06:32:18.553Z,15.90
2019-05-21T06:37:22.888Z,15.90
2019-05-21T06:42:27.208Z,15.90
2019-05-21T06:47:31.501Z,15.90
2019-05-21T06:52:35.875Z,15.90
2019-05-21T06:57:40.260Z,16.00
2019-05-21T07:02:44.559Z,15.90
2019-05-21T07:07:48.858Z,15.90
2019-05-21T07:12:53.278Z,15.80
2019-05-21T07:17:57.631Z,15.80
2019-05-21T07:23:02.261Z,15.80
2019-05-21T07:28:08.759Z,15.90
2019-05-21T07:33:13.397Z,16.00
2019-05-21T07:38:17.810Z,15.90
2019-05-21T07:43:22.168Z,16.00
2019-05-21T07:48:26.554Z,16.00
2019-05-21T07:53:30.945Z,16.00
2019-05-21T07:58:35.267Z,16.00
2019-05-21T08:03:39.574Z,15.90
2019-05-21T08:08:43.894Z,15.90
2019-05-21T08:13:48.175Z,15.90
2019-05-21T08:18:52.556Z,15.90
2019-05-21T08:23:56.848Z,15.90
2019-05-21T08:29:05.684Z,15.80
2019-05-21T08:34:10.010Z,15.70
2019-05-21T08:39:27.695Z,15.70
2019-05-21T08:44:20.466Z,15.80
2019-05-21T08:49:24.825Z,16.00
2019-05-21T08:54:47.321Z,15.90
2019-05-21T08:59:51.612Z,15.90
2019-05-21T09:04:55.992Z,16.00
2019-05-21T09:10:00.297Z,16.10
2019-05-21T09:15:05.143Z,16.20
2019-05-21T09:20:10.371Z,16.20
2019-05-21T09:25:15.190Z,16.20
2019-05-21T09:30:20.702Z,16.30
2019-05-21T09:35:25.010Z,16.20
2019-05-21T09:40:34.114Z,16.20
2019-05-21T09:45:39.029Z,15.90
2019-05-21T09:50:46.875Z,16.00
2019-05-21T10:01:18.894Z,15.90
2019-05-21T10:11:45.452Z,15.90
2019-05-21T10:21:59.131Z,15.90
2019-05-21T10:27:06.748Z,15.80
2019-05-21T10:32:14.778Z,16.00
2019-05-21T10:37:22.812Z,16.10
2019-05-21T10:42:30.871Z,16.10
2019-05-21T10:47:38.738Z,16.00
2019-05-21T10:52:46.782Z,16.00
2019-05-21T11:03:14.784Z,16.10
2019-05-21T11:08:26.805Z,16.10
2019-05-21T11:13:34.873Z,16.10
2019-05-21T11:18:44.305Z,16.20
2019-05-21T11:23:54.747Z,16.20
2019-05-21T11:29:05.857Z,16.30
2019-05-21T11:34:10.792Z,16.40
2019-05-21T11:39:19.921Z,16.60
2019-05-21T11:44:26.843Z,16.70
2019-05-21T11:49:34.753Z,16.80
2019-05-21T11:54:42.786Z,16.80
2019-05-21T11:59:50.906Z,16.90
2019-05-21T12:04:58.520Z,16.90
2019-05-21T12:10:14.814Z,16.90
2019-05-21T12:15:22.921Z,16.90
2019-05-21T12:20:36.801Z,16.80
2019-05-21T12:25:38.799Z,16.90
2019-05-21T12:35:53.038Z,17.20
2019-05-21T12:40:58.867Z,17.40
2019-05-21T12:46:06.868Z,17.40
2019-05-21T12:51:14.796Z,17.30
2019-05-21T12:56:22.803Z,17.30
2019-05-21T13:01:29.503Z,17.30
2019-05-21T13:06:34.847Z,17.30
2019-05-21T13:11:50.882Z,17.40
2019-05-21T13:16:58.813Z,17.50
2019-05-21T13:22:06.804Z,17.60
2019-05-21T13:27:14.822Z,17.60
2019-05-21T13:37:29.231Z,17.80
2019-05-21T13:42:36.933Z,18.00
2019-05-21T13:47:46.780Z,18.00
2019-05-21T13:58:01.349Z,18.10
2019-05-21T14:03:10.753Z,18.10
2019-05-21T14:13:32.330Z,18.10
2019-05-21T14:18:42.803Z,18.10
2019-05-21T14:23:50.817Z,18.00
2019-05-21T14:34:06.839Z,17.40
2019-05-21T14:39:18.720Z,17.30
2019-05-21T14:44:26.775Z,17.30
2019-05-21T14:49:34.823Z,17.60
2019-05-21T14:59:50.728Z,17.80
2019-05-21T15:10:10.787Z,17.60
2019-05-21T15:15:30.968Z,17.60
2019-05-21T15:21:02.875Z,17.50
2019-05-21T15:26:12.970Z,17.40
2019-05-21T15:31:23.018Z,17.30
2019-05-21T15:36:30.830Z,17.30
2019-05-21T15:41:38.839Z,17.20
2019-05-21T15:57:06.910Z,17.30
2019-05-21T16:02:17.375Z,17.20
2019-05-21T16:07:21.761Z,17.30
2019-05-21T16:12:26.352Z,17.30
2019-05-21T16:17:30.665Z,17.10
2019-05-21T16:22:35.038Z,17.20
2019-05-21T16:27:39.657Z,17.30
2019-05-21T16:32:44.080Z,17.30
2019-05-21T16:37:48.443Z,17.30
2019-05-21T16:42:52.828Z,17.30
2019-05-21T16:47:57.175Z,17.10
2019-05-21T16:53:01.690Z,17.20
2019-05-21T16:58:06.097Z,17.10
2019-05-21T17:03:10.412Z,16.90
2019-05-21T17:08:14.849Z,16.80
2019-05-21T17:13:19.491Z,16.70
2019-05-21T17:18:23.823Z,16.80
2019-05-21T17:23:28.286Z,16.90
2019-05-21T17:28:32.651Z,17.00
2019-05-21T17:33:37.260Z,17.10
2019-05-21T17:38:41.695Z,17.20
2019-05-21T17:43:46.043Z,17.10
2019-05-21T17:48:50.539Z,16.90
2019-05-21T17:53:54.974Z,16.90
2019-05-21T17:58:59.376Z,16.90
2019-05-21T18:04:05.046Z,16.70
2019-05-21T18:09:13.777Z,16.50
2019-05-21T18:14:18.830Z,16.50
2019-05-21T18:19:23.260Z,16.40
2019-05-21T19:50:44.063Z,18.20
2019-05-21T19:55:48.712Z,17.60
2019-05-21T20:00:54.799Z,17.40
2019-05-21T20:06:00.807Z,17.00
2019-05-21T20:11:06.393Z,16.90
2019-05-21T20:16:11.460Z,16.80
2019-05-21T20:21:17.105Z,16.70
2019-05-21T20:26:23.638Z,16.70
2019-05-21T20:31:34.130Z,16.60
2019-05-21T20:36:40.755Z,16.40
2019-05-21T20:41:44.682Z,16.30
2019-05-21T20:46:49.097Z,16.30
2019-05-21T20:51:53.600Z,16.40
2019-05-21T20:56:57.961Z,16.40
2019-05-21T21:02:05.660Z,16.50
2019-05-21T21:07:08.587Z,16.40
2019-05-21T21:12:12.922Z,16.20
2019-05-21T21:17:17.812Z,16.00
2019-05-21T21:22:22.099Z,15.90
2019-05-21T21:27:26.914Z,15.70
2019-05-21T21:32:31.749Z,15.70
2019-05-21T21:37:36.206Z,15.70
2019-05-21T21:42:41.520Z,15.50
2019-05-21T21:47:45.907Z,15.50
2019-05-21T21:52:50.704Z,15.40
2019-05-21T21:57:55.124Z,15.30
2019-05-21T22:03:02.912Z,15.30
2019-05-21T22:08:07.708Z,15.20
2019-05-21T22:13:12.871Z,15.10
2019-05-21T22:18:19.564Z,15.10
2019-05-21T22:23:24.901Z,15.10
2019-05-21T22:28:30.293Z,15.00
2019-05-21T22:33:35.240Z,15.00
2019-05-21T22:38:40.190Z,15.00
2019-05-21T22:43:45.134Z,15.00
2019-05-21T22:48:49.694Z,15.10
2019-05-21T22:53:54.133Z,15.00
2019-05-21T22:58:58.436Z,14.90
2019-05-21T23:04:02.767Z,14.90
2019-05-21T23:09:08.504Z,15.00
2019-05-21T23:14:12.932Z,15.00
2019-05-21T23:19:18.073Z,14.90
2019-05-21T23:24:23.493Z,15.00
2019-05-21T23:29:28.224Z,15.10
2019-05-21T23:34:32.879Z,15.20
2019-05-21T23:39:37.998Z,15.20
2019-05-21T23:44:42.491Z,15.30
2019-05-21T23:49:46.843Z,15.20
2019-05-21T23:54:51.702Z,15.20
2019-05-21T23:59:57.017Z,15.30
